Strona główna
METAR-TAF:

METAR-TAF

Lotnisko :

Saint-Dizier, Francja

Szerokość geograficzna: 48-38N, Długość geograficzna: 004-54E, wysokość: 139 m

Aktualna obserwacja pogody

Raport powstał 21 minut temu, godzina 06:00 UTC
Wiatr 9 kt od wschód
Temperatura 15°C
Wilgotność 55%
Ciśnienie 1018 hPa
Widzialność 10 km lub więcej
Brak chmur poniżej 1500 m i brak chmur cumulonimbus

METAR: LFSI 010600Z AUTO 08009KT CAVOK 15/06 Q1018

czas: 08:21 (06:21 UTC)

Prognoza

Raport powstał 4 godziny i 21 minut temu, godzina 02:00 UTC
Prognoza ważna od 01 godzina 03 UTC do 02 godzina 03 UTC
Wiatr 5 kt od wschodnio-południowy wschód
Widzialność 10 km lub więcej
Brak chmur poniżej 1500 m i brak chmur cumulonimbus

TAF: LFSI 010200Z 0103/0203 11005KT CAVOK

Obserwacja i prognoza pogody dla ponad 4000 lotnisk (raport METAR i TAF).

Dostępne stacje oznaczono żółtymi i czerwonymi punktami na mapie.

Najedź kursorem aby zobaczyć nazwę stacji.

Kliknij aby zobaczyć obserwacje i prognozy pogody.

Aby zmienić mapę: kliknij na zielony przycisk z czarnym krzyżykiem, aby powiększyć; na zielony przycisk z myślnikiem, aby pomniejszyć; na zielone strzałki, aby przejść do map sąsiednich.


METAR-TAF: